sensor_id;sensor_type;location;lat;lon;timestamp;pressure;altitude;pressure_sealevel;temperature;humidity
77517;BME280;68414;53.946;27.634;2023-05-16T00:00:45;98566.648438;;;18.420000;40.245117
77517;BME280;68414;53.946;27.634;2023-05-16T00:01:43;98574.203125;;;18.450001;40.314453
77517;BME280;68414;53.946;27.634;2023-05-16T00:02:43;98572.234375;;;18.420000;40.356445
77517;BME280;68414;53.946;27.634;2023-05-16T00:03:43;98573.421875;;;18.410000;40.499023
77517;BME280;68414;53.946;27.634;2023-05-16T00:04:43;98570.250000;;;18.389999;40.642578
77517;BME280;68414;53.946;27.634;2023-05-16T00:05:43;98569.843750;;;18.440001;40.769531
77517;BME280;68414;53.946;27.634;2023-05-16T00:06:43;98567.390625;;;18.500000;40.374023
77517;BME280;68414;53.946;27.634;2023-05-16T00:07:44;98575.812500;;;18.430000;40.456055
77517;BME280;68414;53.946;27.634;2023-05-16T00:08:43;98565.421875;;;18.430000;40.445312
77517;BME280;68414;53.946;27.634;2023-05-16T00:09:43;98559.890625;;;18.400000;40.576172
77517;BME280;68414;53.946;27.634;2023-05-16T00:10:43;98561.085938;;;18.389999;40.497070
77517;BME280;68414;53.946;27.634;2023-05-16T00:11:43;98562.968750;;;18.559999;40.056641
77517;BME280;68414;53.946;27.634;2023-05-16T00:12:43;98560.187500;;;18.520000;40.165039
77517;BME280;68414;53.946;27.634;2023-05-16T00:13:43;98561.812500;;;18.500000;40.285156
77517;BME280;68414;53.946;27.634;2023-05-16T00:14:43;98557.031250;;;18.500000;40.418945
77517;BME280;68414;53.946;27.634;2023-05-16T00:15:43;98563.062500;;;18.420000;40.433594
77517;BME280;68414;53.946;27.634;2023-05-16T00:16:43;98559.468750;;;18.410000;40.455078
77517;BME280;68414;53.946;27.634;2023-05-16T00:17:43;98556.343750;;;18.360001;40.383789
77517;BME280;68414;53.946;27.634;2023-05-16T00:18:43;98555.546875;;;18.350000;40.549805
77517;BME280;68414;53.946;27.634;2023-05-16T00:19:43;98558.703125;;;18.410000;40.321289
77517;BME280;68414;53.946;27.634;2023-05-16T00:20:43;98554.312500;;;18.400000;40.498047
77517;BME280;68414;53.946;27.634;2023-05-16T00:21:43;98554.312500;;;18.400000;40.498047
77517;BME280;68414;53.946;27.634;2023-05-16T00:22:43;98562.312500;;;18.379999;40.763672
77517;BME280;68414;53.946;27.634;2023-05-16T00:23:43;98556.343750;;;18.360001;40.539062
77517;BME280;68414;53.946;27.634;2023-05-16T00:24:43;98564.656250;;;18.430000;40.344727
77517;BME280;68414;53.946;27.634;2023-05-16T00:25:43;98557.101562;;;18.400000;40.253906
77517;BME280;68414;53.946;27.634;2023-05-16T00:26:43;98556.289062;;;18.430000;40.323242
77517;BME280;68414;53.946;27.634;2023-05-16T00:27:43;98563.843750;;;18.459999;40.192383
77517;BME280;68414;53.946;27.634;2023-05-16T00:28:43;98562.687500;;;18.400000;40.476562
77517;BME280;68414;53.946;27.634;2023-05-16T00:29:43;98560.265625;;;18.420000;40.344727
77517;BME280;68414;53.946;27.634;2023-05-16T00:30:43;98561.812500;;;18.500000;40.385742
77517;BME280;68414;53.946;27.634;2023-05-16T00:31:43;98561.031250;;;18.490000;40.595703
77517;BME280;68414;53.946;27.634;2023-05-16T00:32:43;98563.437500;;;18.440001;40.524414
77517;BME280;68414;53.946;27.634;2023-05-16T00:33:43;98561.507812;;;18.370001;40.440430
77517;BME280;68414;53.946;27.634;2023-05-16T00:34:43;98557.101562;;;18.400000;40.565430
77517;BME280;68414;53.946;27.634;2023-05-16T00:35:43;98556.273438;;;18.459999;40.637695
77517;BME280;68414;53.946;27.634;2023-05-16T00:36:43;98559.515625;;;18.379999;40.641602
77517;BME280;68414;53.946;27.634;2023-05-16T00:37:43;98553.937500;;;18.379999;40.418945
77517;BME280;68414;53.946;27.634;2023-05-16T00:38:43;98563.062500;;;18.420000;40.745117
77517;BME280;68414;53.946;27.634;2023-05-16T00:39:43;98557.484375;;;18.420000;40.967773
77517;BME280;68414;53.946;27.634;2023-05-16T00:40:43;98561.070312;;;18.420000;40.534180
77517;BME280;68414;53.946;27.634;2023-05-16T00:41:43;98556.726562;;;18.379999;40.507812
77517;BME280;68414;53.946;27.634;2023-05-16T00:42:43;98563.500000;;;18.370001;40.973633
77517;BME280;68414;53.946;27.634;2023-05-16T00:43:43;98562.312500;;;18.379999;40.474609
77517;BME280;68414;53.946;27.634;2023-05-16T00:44:43;98561.945312;;;18.320000;40.536133
77517;BME280;68414;53.946;27.634;2023-05-16T00:45:44;98558.765625;;;18.340000;40.670898
77517;BME280;68414;53.946;27.634;2023-05-16T00:46:43;98561.187500;;;18.280001;40.754883
77517;BME280;68414;53.946;27.634;2023-05-16T00:47:43;98558.820312;;;18.270000;40.697266
77517;BME280;68414;53.946;27.634;2023-05-16T00:48:43;98561.562500;;;18.299999;40.779297
77517;BME280;68414;53.946;27.634;2023-05-16T00:49:43;98563.976562;;;18.280001;41.055664
77517;BME280;68414;53.946;27.634;2023-05-16T00:50:43;98567.187500;;;18.270000;40.808594
77517;BME280;68414;53.946;27.634;2023-05-16T00:51:43;98560.796875;;;18.299999;40.778320
77517;BME280;68414;53.946;27.634;2023-05-16T00:52:43;98554.859375;;;18.240000;40.794922
77517;BME280;68414;53.946;27.634;2023-05-16T00:53:43;98559.671875;;;18.200001;40.903320
77517;BME280;68414;53.946;27.634;2023-05-16T00:54:43;98555.320312;;;18.190001;40.958008
77517;BME280;68414;53.946;27.634;2023-05-16T00:55:45;98553.296875;;;18.190001;40.968750
77517;BME280;68414;53.946;27.634;2023-05-16T00:56:43;98550.515625;;;18.190001;41.024414
77517;BME280;68414;53.946;27.634;2023-05-16T00:57:43;98551.687500;;;18.219999;40.882812
77517;BME280;68414;53.946;27.634;2023-05-16T00:58:43;98561.273438;;;18.209999;41.125977
77517;BME280;68414;53.946;27.634;2023-05-16T00:59:44;98556.828125;;;18.270000;41.053711
77517;BME280;68414;53.946;27.634;2023-05-16T01:00:43;98544.125000;;;18.230000;41.283203
77517;BME280;68414;53.946;27.634;2023-05-16T01:01:44;98542.898438;;;18.240000;41.083984
77517;BME280;68414;53.946;27.634;2023-05-16T01:02:43;98545.359375;;;18.180000;41.111328
77517;BME280;68414;53.946;27.634;2023-05-16T01:03:43;98547.343750;;;18.170000;41.178711
77517;BME280;68414;53.946;27.634;2023-05-16T01:04:43;98543.742188;;;18.209999;41.192383
77517;BME280;68414;53.946;27.634;2023-05-16T01:05:43;98546.585938;;;18.129999;41.308594
77517;BME280;68414;53.946;27.634;2023-05-16T01:06:47;98546.585938;;;18.129999;41.141602
77517;BME280;68414;53.946;27.634;2023-05-16T01:07:43;98545.789062;;;18.129999;41.551758
77517;BME280;68414;53.946;27.634;2023-05-16T01:08:43;98537.031250;;;18.139999;41.353516
77517;BME280;68414;53.946;27.634;2023-05-16T01:09:43;98539.671875;;;18.290001;40.855469
77517;BME280;68414;53.946;27.634;2023-05-16T01:10:49;98536.070312;;;18.320000;40.780273
77517;BME280;68414;53.946;27.634;2023-05-16T01:14:45;98541.390625;;;18.150000;41.199219
77517;BME280;68414;53.946;27.634;2023-05-16T01:15:46;98540.968750;;;18.170000;41.267578
77517;BME280;68414;53.946;27.634;2023-05-16T01:26:43;98536.718750;;;18.020000;41.552734
77517;BME280;68414;53.946;27.634;2023-05-16T01:27:43;98535.156250;;;18.010000;41.673828
77517;BME280;68414;53.946;27.634;2023-05-16T01:28:44;98536.718750;;;18.020000;41.630859
77517;BME280;68414;53.946;27.634;2023-05-16T01:29:43;98533.554688;;;18.000000;41.750977
77517;BME280;68414;53.946;27.634;2023-05-16T01:30:43;98529.156250;;;18.020000;41.708984
77517;BME280;68414;53.946;27.634;2023-05-16T01:31:43;98531.984375;;;17.990000;41.671875
77517;BME280;68414;53.946;27.634;2023-05-16T01:32:43;98527.921875;;;18.070000;41.402344
77517;BME280;68414;53.946;27.634;2023-05-16T01:33:43;98530.710938;;;18.070000;41.546875
77517;BME280;68414;53.946;27.634;2023-05-16T01:34:43;98532.328125;;;18.040001;41.421875
77517;BME280;68414;53.946;27.634;2023-05-16T01:35:48;98526.687500;;;18.110001;41.540039
77517;BME280;68414;53.946;27.634;2023-05-16T01:36:46;98534.296875;;;18.070000;41.692383
77517;BME280;68414;53.946;27.634;2023-05-16T01:37:44;98534.343750;;;18.040001;41.709961
77517;BME280;68414;53.946;27.634;2023-05-16T01:38:44;98540.734375;;;18.010000;41.840820
77517;BME280;68414;53.946;27.634;2023-05-16T01:39:44;98539.601562;;;17.910000;42.131836
77517;BME280;68414;53.946;27.634;2023-05-16T01:42:44;98505.015625;;;17.850000;41.948242
77517;BME280;68414;53.946;27.634;2023-05-16T01:43:45;98519.281250;;;17.940001;42.011719
77517;BME280;68414;53.946;27.634;2023-05-16T01:44:44;98527.218750;;;17.959999;42.914062
77517;BME280;68414;53.946;27.634;2023-05-16T01:45:46;98522.109375;;;17.910000;42.387695
77517;BME280;68414;53.946;27.634;2023-05-16T01:46:44;98515.687500;;;17.940001;42.656250
77517;BME280;68414;53.946;27.634;2023-05-16T01:47:44;98522.500000;;;17.889999;43.084961
77517;BME280;68414;53.946;27.634;2023-05-16T01:48:52;98522.914062;;;17.879999;43.283203
77517;BME280;68414;53.946;27.634;2023-05-16T01:50:44;98525.750000;;;17.809999;43.143555
77517;BME280;68414;53.946;27.634;2023-05-16T01:53:43;98509.500000;;;17.719999;42.813477
77517;BME280;68414;53.946;27.634;2023-05-16T01:54:44;98507.507812;;;17.730000;43.124023
77517;BME280;68414;53.946;27.634;2023-05-16T01:57:43;98511.476562;;;17.750000;42.626953
77517;BME280;68414;53.946;27.634;2023-05-16T01:58:43;98510.640625;;;17.780001;42.918945
77517;BME280;68414;53.946;27.634;2023-05-16T01:59:43;98509.070312;;;17.770000;42.562500
77517;BME280;68414;53.946;27.634;2023-05-16T02:00:43;98509.539062;;;17.690001;42.909180
77517;BME280;68414;53.946;27.634;2023-05-16T02:01:43;98506.328125;;;17.700001;42.922852
77517;BME280;68414;53.946;27.634;2023-05-16T02:02:43;98514.265625;;;17.750000;43.004883
77517;BME280;68414;53.946;27.634;2023-05-16T02:03:43;98520.593750;;;17.790001;42.641602
77517;BME280;68414;53.946;27.634;2023-05-16T02:04:43;98515.453125;;;17.740000;42.726562
77517;BME280;68414;53.946;27.634;2023-05-16T02:05:43;98522.578125;;;17.790001;42.519531
77517;BME280;68414;53.946;27.634;2023-05-16T02:06:43;98526.593750;;;17.780001;42.762695
77517;BME280;68414;53.946;27.634;2023-05-16T02:07:43;98523.804688;;;17.780001;42.640625
77517;BME280;68414;53.946;27.634;2023-05-16T02:08:43;98522.625000;;;17.750000;42.527344
77517;BME280;68414;53.946;27.634;2023-05-16T02:09:43;98526.640625;;;17.670000;42.941406
77517;BME280;68414;53.946;27.634;2023-05-16T02:10:43;98528.585938;;;17.740000;42.992188
77517;BME280;68414;53.946;27.634;2023-05-16T02:11:43;98527.359375;;;17.780001;43.140625
77517;BME280;68414;53.946;27.634;2023-05-16T02:12:43;98533.312500;;;17.799999;42.587891
77517;BME280;68414;53.946;27.634;2023-05-16T02:13:43;98529.679688;;;17.870001;42.527344
77517;BME280;68414;53.946;27.634;2023-05-16T02:14:43;98521.781250;;;17.780001;42.441406
77517;BME280;68414;53.946;27.634;2023-05-16T02:15:43;98529.000000;;;17.760000;42.616211
77517;BME280;68414;53.946;27.634;2023-05-16T02:16:43;98532.085938;;;17.850000;42.891602
77517;BME280;68414;53.946;27.634;2023-05-16T02:17:43;98537.265625;;;17.860001;42.449219
77517;BME280;68414;53.946;27.634;2023-05-16T02:18:43;98526.421875;;;17.950001;42.312500
77517;BME280;68414;53.946;27.634;2023-05-16T02:19:43;98527.679688;;;17.910000;42.564453
77517;BME280;68414;53.946;27.634;2023-05-16T02:20:43;98518.609375;;;17.799999;42.987305
77517;BME280;68414;53.946;27.634;2023-05-16T02:21:43;98521.781250;;;17.780001;42.830078
77517;BME280;68414;53.946;27.634;2023-05-16T02:22:43;98530.531250;;;17.799999;42.621094
77517;BME280;68414;53.946;27.634;2023-05-16T02:23:43;98521.015625;;;17.780001;42.873047
77517;BME280;68414;53.946;27.634;2023-05-16T02:24:43;98530.601562;;;17.730000;43.001953
77517;BME280;68414;53.946;27.634;2023-05-16T02:25:43;98541.328125;;;17.750000;43.693359
77517;BME280;68414;53.946;27.634;2023-05-16T02:26:43;98533.304688;;;17.840000;42.834961
77517;BME280;68414;53.946;27.634;2023-05-16T02:27:43;98531.703125;;;17.860001;42.849609
77517;BME280;68414;53.946;27.634;2023-05-16T02:28:43;98541.210938;;;17.889999;43.062500
77517;BME280;68414;53.946;27.634;2023-05-16T02:29:43;98536.468750;;;17.860001;42.737305
77517;BME280;68414;53.946;27.634;2023-05-16T02:30:43;98530.093750;;;17.850000;43.180664
77517;BME280;68414;53.946;27.634;2023-05-16T02:31:43;98530.515625;;;17.840000;42.879883
77517;BME280;68414;53.946;27.634;2023-05-16T02:32:44;98538.890625;;;17.799999;43.242188
77517;BME280;68414;53.946;27.634;2023-05-16T02:33:43;98530.945312;;;17.790001;44.151367
77517;BME280;68414;53.946;27.634;2023-05-16T02:34:43;98537.781250;;;17.709999;44.187500
77517;BME280;68414;53.946;27.634;2023-05-16T02:35:43;98548.890625;;;17.740000;44.080078
77517;BME280;68414;53.946;27.634;2023-05-16T02:36:43;98538.203125;;;17.690001;44.286133
77517;BME280;68414;53.946;27.634;2023-05-16T02:37:43;98545.390625;;;17.629999;44.402344
77517;BME280;68414;53.946;27.634;2023-05-16T02:38:43;98543.820312;;;17.590000;44.608398
77517;BME280;68414;53.946;27.634;2023-05-16T02:39:43;98541.828125;;;17.629999;44.856445
77517;BME280;68414;53.946;27.634;2023-05-16T02:40:43;98536.257812;;;17.629999;44.467773
77517;BME280;68414;53.946;27.634;2023-05-16T02:41:43;98531.453125;;;17.670000;44.704102
77517;BME280;68414;53.946;27.634;2023-05-16T02:42:43;98539.046875;;;17.629999;45.099609
77517;BME280;68414;53.946;27.634;2023-05-16T02:43:45;98536.257812;;;17.629999;45.166016
77517;BME280;68414;53.946;27.634;2023-05-16T02:44:45;98538.242188;;;17.620001;46.430664
77517;BME280;68414;53.946;27.634;2023-05-16T02:45:43;98537.031250;;;17.629999;46.797852
77517;BME280;68414;53.946;27.634;2023-05-16T02:46:43;98536.296875;;;17.559999;46.235352
77517;BME280;68414;53.946;27.634;2023-05-16T02:47:43;98525.953125;;;17.530001;46.331055
77517;BME280;68414;53.946;27.634;2023-05-16T02:48:43;98530.726562;;;17.559999;45.581055
77517;BME280;68414;53.946;27.634;2023-05-16T02:49:43;98530.343750;;;17.500000;46.661133
77517;BME280;68414;53.946;27.634;2023-05-16T02:50:43;98532.718750;;;17.480000;45.983398
77517;BME280;68414;53.946;27.634;2023-05-16T02:51:43;98530.390625;;;17.430000;45.556641
77517;BME280;68414;53.946;27.634;2023-05-16T02:52:43;98534.734375;;;17.510000;44.523438
77517;BME280;68414;53.946;27.634;2023-05-16T02:53:43;98531.906250;;;17.580000;45.573242
77517;BME280;68414;53.946;27.634;2023-05-16T02:54:43;98536.718750;;;17.540001;45.568359
77517;BME280;68414;53.946;27.634;2023-05-16T02:55:43;98533.093750;;;17.570000;45.881836
77517;BME280;68414;53.946;27.634;2023-05-16T02:56:43;98537.109375;;;17.490000;46.527344
77517;BME280;68414;53.946;27.634;2023-05-16T02:57:43;98536.718750;;;17.469999;46.791016
77517;BME280;68414;53.946;27.634;2023-05-16T02:58:45;98532.343750;;;17.459999;46.069336
77517;BME280;68414;53.946;27.634;2023-05-16T02:59:43;98527.953125;;;17.490000;45.761719
77517;BME280;68414;53.946;27.634;2023-05-16T03:00:43;98533.132812;;;17.500000;45.009766
77517;BME280;68414;53.946;27.634;2023-05-16T03:01:43;98524.398438;;;17.440001;45.336914
77517;BME280;68414;53.946;27.634;2023-05-16T03:02:43;98521.195312;;;17.459999;45.481445
77517;BME280;68414;53.946;27.634;2023-05-16T03:03:43;98522.796875;;;17.430000;45.601562
77517;BME280;68414;53.946;27.634;2023-05-16T03:04:43;98521.687500;;;17.340000;46.067383
77517;BME280;68414;53.946;27.634;2023-05-16T03:05:43;98526.835938;;;17.350000;47.177734
77517;BME280;68414;53.946;27.634;2023-05-16T03:06:43;98526.031250;;;17.379999;46.848633
77517;BME280;68414;53.946;27.634;2023-05-16T03:07:43;98519.632812;;;17.410000;46.087891
77517;BME280;68414;53.946;27.634;2023-05-16T03:08:43;98518.062500;;;17.400000;46.229492
77517;BME280;68414;53.946;27.634;2023-05-16T03:09:43;98518.867188;;;17.370001;46.470703
77517;BME280;68414;53.946;27.634;2023-05-16T03:10:43;98507.765625;;;17.299999;46.252930
77517;BME280;68414;53.946;27.634;2023-05-16T03:11:43;98515.343750;;;17.299999;46.274414
77517;BME280;68414;53.946;27.634;2023-05-16T03:12:43;98509.390625;;;17.280001;46.571289
77517;BME280;68414;53.946;27.634;2023-05-16T03:13:43;98509.007812;;;17.260000;46.436523
77517;BME280;68414;53.946;27.634;2023-05-16T03:14:43;98512.593750;;;17.230000;46.367188
77517;BME280;68414;53.946;27.634;2023-05-16T03:15:43;98503.437500;;;17.219999;46.842773
77517;BME280;68414;53.946;27.634;2023-05-16T03:16:43;98495.921875;;;17.190001;46.618164
77517;BME280;68414;53.946;27.634;2023-05-16T03:17:43;98491.921875;;;17.200001;46.208984
77517;BME280;68414;53.946;27.634;2023-05-16T03:18:43;98490.734375;;;17.180000;46.948242
77517;BME280;68414;53.946;27.634;2023-05-16T03:19:43;98501.484375;;;17.190001;46.462891
77517;BME280;68414;53.946;27.634;2023-05-16T03:20:43;98508.593750;;;17.240000;47.441406
77517;BME280;68414;53.946;27.634;2023-05-16T03:21:43;98515.000000;;;17.209999;47.063477
77517;BME280;68414;53.946;27.634;2023-05-16T03:22:43;98500.687500;;;17.150000;46.901367
77517;BME280;68414;53.946;27.634;2023-05-16T03:23:43;98500.687500;;;17.150000;46.790039
77517;BME280;68414;53.946;27.634;2023-05-16T03:24:43;98491.125000;;;17.200001;46.673828
77517;BME280;68414;53.946;27.634;2023-05-16T03:25:43;98499.539062;;;17.129999;46.810547
77517;BME280;68414;53.946;27.634;2023-05-16T03:26:43;98498.359375;;;17.070000;46.682617
77517;BME280;68414;53.946;27.634;2023-05-16T03:27:43;98509.875000;;;17.120001;47.052734
77517;BME280;68414;53.946;27.634;2023-05-16T03:28:43;98509.484375;;;17.100000;47.471680
77517;BME280;68414;53.946;27.634;2023-05-16T03:29:43;98497.937500;;;17.120001;47.008789
77517;BME280;68414;53.946;27.634;2023-05-16T03:30:43;98488.820312;;;17.080000;46.881836
77517;BME280;68414;53.946;27.634;2023-05-16T03:31:43;98493.554688;;;17.139999;46.568359
77517;BME280;68414;53.946;27.634;2023-05-16T03:32:43;98493.523438;;;17.180000;46.472656
77517;BME280;68414;53.946;27.634;2023-05-16T03:33:43;98490.734375;;;17.180000;46.660156
77517;BME280;68414;53.946;27.634;2023-05-16T03:34:43;98491.578125;;;17.110001;46.431641
77517;BME280;68414;53.946;27.634;2023-05-16T03:35:43;98487.187500;;;17.139999;46.301758
77517;BME280;68414;53.946;27.634;2023-05-16T03:36:43;98486.000000;;;17.150000;46.624023
77517;BME280;68414;53.946;27.634;2023-05-16T03:37:43;98486.453125;;;17.059999;46.726562
77517;BME280;68414;53.946;27.634;2023-05-16T03:38:43;98482.093750;;;17.020000;46.123047
77517;BME280;68414;53.946;27.634;2023-05-16T03:39:43;98484.882812;;;17.020000;46.521484
77517;BME280;68414;53.946;27.634;2023-05-16T03:40:43;98484.078125;;;17.010000;46.675781
77517;BME280;68414;53.946;27.634;2023-05-16T03:41:43;98486.484375;;;16.990000;46.961914
77517;BME280;68414;53.946;27.634;2023-05-16T03:42:43;98492.875000;;;16.930000;46.876953
77517;BME280;68414;53.946;27.634;2023-05-16T03:43:43;98486.062500;;;17.010000;46.698242
77517;BME280;68414;53.946;27.634;2023-05-16T03:44:43;98486.453125;;;17.030001;46.822266
77517;BME280;68414;53.946;27.634;2023-05-16T03:45:43;98488.406250;;;17.090000;46.651367
77517;BME280;68414;53.946;27.634;2023-05-16T03:46:43;98488.820312;;;17.080000;47.103516
77517;BME280;68414;53.946;27.634;2023-05-16T03:47:44;98498.359375;;;17.070000;46.450195
77517;BME280;68414;53.946;27.634;2023-05-16T03:48:43;98498.359375;;;17.100000;46.973633
77517;BME280;68414;53.946;27.634;2023-05-16T03:49:43;98502.734375;;;17.080000;46.948242
77517;BME280;68414;53.946;27.634;2023-05-16T03:50:43;98501.937500;;;17.070000;46.782227
77517;BME280;68414;53.946;27.634;2023-05-16T03:51:43;98503.062500;;;17.200001;46.198242
77517;BME280;68414;53.946;27.634;2023-05-16T03:52:43;98507.828125;;;17.230000;46.566406
77517;BME280;68414;53.946;27.634;2023-05-16T03:53:43;98503.437500;;;17.219999;46.698242
77517;BME280;68414;53.946;27.634;2023-05-16T03:54:43;98509.046875;;;17.190001;46.971680
77517;BME280;68414;53.946;27.634;2023-05-16T03:55:43;98514.609375;;;17.150000;47.166992
77517;BME280;68414;53.946;27.634;2023-05-16T03:56:43;98514.257812;;;17.100000;46.529297
77517;BME280;68414;53.946;27.634;2023-05-16T03:57:43;98509.906250;;;17.049999;46.602539
77517;BME280;68414;53.946;27.634;2023-05-16T03:58:43;98512.687500;;;17.049999;46.679688
77517;BME280;68414;53.946;27.634;2023-05-16T03:59:43;98502.351562;;;17.059999;46.769531
77517;BME280;68414;53.946;27.634;2023-05-16T04:00:43;98498.000000;;;17.010000;46.752930
77517;BME280;68414;53.946;27.634;2023-05-16T04:01:43;98505.937500;;;17.030001;46.644531
77517;BME280;68414;53.946;27.634;2023-05-16T04:02:43;98497.234375;;;16.969999;46.970703
77517;BME280;68414;53.946;27.634;2023-05-16T04:03:43;98496.046875;;;16.950001;47.134766
77517;BME280;68414;53.946;27.634;2023-05-16T04:04:43;98490.093750;;;16.930000;47.341797
77517;BME280;68414;53.946;27.634;2023-05-16T04:05:43;98488.492188;;;16.920000;47.053711
77517;BME280;68414;53.946;27.634;2023-05-16T04:06:43;98499.210938;;;16.969999;47.258789
77517;BME280;68414;53.946;27.634;2023-05-16T04:07:43;98498.000000;;;17.010000;47.041016
77517;BME280;68414;53.946;27.634;2023-05-16T04:08:43;98501.140625;;;17.070000;47.236328
77517;BME280;68414;53.946;27.634;2023-05-16T04:09:43;98505.546875;;;17.040001;47.255859
77517;BME280;68414;53.946;27.634;2023-05-16T04:10:43;98506.703125;;;17.070000;47.047852
77517;BME280;68414;53.946;27.634;2023-05-16T04:11:43;98509.906250;;;17.049999;47.144531
77517;BME280;68414;53.946;27.634;2023-05-16T04:12:43;98507.921875;;;17.020000;47.021484
77517;BME280;68414;53.946;27.634;2023-05-16T04:13:43;98518.671875;;;17.040001;47.243164
77517;BME280;68414;53.946;27.634;2023-05-16T04:14:43;98511.859375;;;17.120001;47.075195
77517;BME280;68414;53.946;27.634;2023-05-16T04:15:43;98509.046875;;;17.190001;46.406250
77517;BME280;68414;53.946;27.634;2023-05-16T04:16:43;98512.625000;;;17.190001;46.374023
77517;BME280;68414;53.946;27.634;2023-05-16T04:17:43;98508.656250;;;17.170000;46.604492
77517;BME280;68414;53.946;27.634;2023-05-16T04:18:43;98511.031250;;;17.180000;46.329102
77517;BME280;68414;53.946;27.634;2023-05-16T04:19:43;98511.828125;;;17.190001;46.318359
77517;BME280;68414;53.946;27.634;2023-05-16T04:20:43;98509.429688;;;17.209999;46.542969
77517;BME280;68414;53.946;27.634;2023-05-16T04:21:43;98506.578125;;;17.309999;46.110352
77517;BME280;68414;53.946;27.634;2023-05-16T04:22:43;98504.968750;;;17.340000;46.034180
77517;BME280;68414;53.946;27.634;2023-05-16T04:23:43;98506.640625;;;17.209999;46.487305
77517;BME280;68414;53.946;27.634;2023-05-16T04:24:44;98511.445312;;;17.170000;47.036133
77517;BME280;68414;53.946;27.634;2023-05-16T04:25:43;98510.671875;;;17.129999;46.511719
77517;BME280;68414;53.946;27.634;2023-05-16T04:26:43;98513.046875;;;17.139999;46.401367
77517;BME280;68414;53.946;27.634;2023-05-16T04:27:43;98514.609375;;;17.150000;46.590820
77517;BME280;68414;53.946;27.634;2023-05-16T04:28:43;98509.843750;;;17.160000;46.680664
77517;BME280;68414;53.946;27.634;2023-05-16T04:29:43;98516.625000;;;17.150000;46.590820
77517;BME280;68414;53.946;27.634;2023-05-16T04:30:43;98511.828125;;;17.150000;46.513672
77517;BME280;68414;53.946;27.634;2023-05-16T04:31:43;98506.296875;;;17.120001;47.208008
77517;BME280;68414;53.946;27.634;2023-05-16T04:32:43;98511.828125;;;17.150000;46.436523
77517;BME280;68414;53.946;27.634;2023-05-16T04:33:43;98513.046875;;;17.139999;46.568359
77517;BME280;68414;53.946;27.634;2023-05-16T04:34:43;98509.046875;;;17.150000;46.536133
77517;BME280;68414;53.946;27.634;2023-05-16T04:35:43;98510.320312;;;17.040001;46.767578
77517;BME280;68414;53.946;27.634;2023-05-16T04:36:43;98509.078125;;;17.120001;46.720703
77517;BME280;68414;53.946;27.634;2023-05-16T04:37:43;98513.460938;;;17.129999;47.707031
77517;BME280;68414;53.946;27.634;2023-05-16T04:38:43;98511.796875;;;17.219999;46.654297
77517;BME280;68414;53.946;27.634;2023-05-16T04:39:43;98511.828125;;;17.190001;47.071289
77517;BME280;68414;53.946;27.634;2023-05-16T04:40:43;98511.796875;;;17.260000;46.879883
77517;BME280;68414;53.946;27.634;2023-05-16T04:41:43;98513.328125;;;17.340000;46.765625
77517;BME280;68414;53.946;27.634;2023-05-16T04:42:43;98514.546875;;;17.290001;46.606445
77517;BME280;68414;53.946;27.634;2023-05-16T04:43:43;98515.312500;;;17.330000;46.632812
77517;BME280;68414;53.946;27.634;2023-05-16T04:44:43;98517.679688;;;17.379999;46.216797
77517;BME280;68414;53.946;27.634;2023-05-16T04:45:43;98520.078125;;;17.330000;46.399414
77517;BME280;68414;53.946;27.634;2023-05-16T04:46:43;98515.281250;;;17.370001;46.537109
77517;BME280;68414;53.946;27.634;2023-05-16T04:47:43;98518.898438;;;17.340000;47.109375
77517;BME280;68414;53.946;27.634;2023-05-16T04:48:43;98514.093750;;;17.379999;46.592773
77517;BME280;68414;53.946;27.634;2023-05-16T04:49:43;98512.453125;;;17.440001;46.355469
77517;BME280;68414;53.946;27.634;2023-05-16T04:50:43;98515.234375;;;17.480000;46.348633